Angel Fire, New Mexico
Current Conditions -  °F | °C
As of 12:15 AM on Thursday 18 Dec 2014 (Local Time) from KAXX Reporting Station
Light Snow Light Snow  
Wind Chill: 23°   Ceiling: 1300
Heat Index: 28°   Visibility: 4mi
Dew Point: 24°   Wind: 5mph
Humidity: 86%   Direction: 230°SW
Pressure: 30.03"   Gusts: NA
Location:  36.39°N, 105.29°W
Report Text: KAXX 180715Z AUTO 23004KT 4SM -SN SCT010 BKN013 OVC024 M02/M04 A3003 RMK AO2 T10221042
Loading
Personal Weather Stations






























Interactive Weather Map New forecast layout! Learn more

10-Day Weather Forecast

Advertisements
Track Severe Weather on mobile